»·PEaware :: DAL990 KSLC-KIDA

DAL990 :: KSLC-KIDA

FLIGHT INFORMATION

Flight Status: Arrived
Operator:
Delta Air Lines
More flights by this operator :: More flights under this callsign
Pilot: Jamyson D. (13674)
Aircraft: AIRBUS A320
(A320)
More flights by this aircraft type
Origin: KSLC Salt Lake City Intl
United States
Destination: KIDA Idaho Falls Regl
United States
More flights between these airports :: More routes between these airports
Route: NSIGN5 HOLTR
File this flight plan on PilotEdge
Remarks:
Altitude:
(Current/Filed)
26,000ft
Speed:
(Current/Filed)
401kts
Departed: 04-Jan-18 12:25 PM
Arrived: 04-Jan-18 12:57 PM
Distance/Time
Traveled:
164nm/0:32
Distance/Time
To Go:
Arrived

Flight Plot

Page will automatically refresh every two minutes.

Flight plan parsing failed; only flown route is shown


Map Options




Map Legend


Flown Route
Filed Route
Departure Airport
Arrival Airport
Navaid (VOR, NDB)
Fix

Horizontal Profiles

Position Reports

Time Latitude Longitude Heading Altitude Ground
Speed
04-Jan-18 12:08 40.789089 -111.980779 229 4236ft 0kts
04-Jan-18 12:09 40.789089 -111.980779 229 4236ft 0kts
04-Jan-18 12:10 40.789089 -111.980779 229 4236ft 0kts
04-Jan-18 12:11 40.789089 -111.980779 229 4236ft 0kts
04-Jan-18 12:12 40.789089 -111.980779 229 4236ft 0kts
04-Jan-18 12:13 40.789089 -111.980779 229 4236ft 0kts
04-Jan-18 12:14 40.789089 -111.980779 229 4236ft 0kts
04-Jan-18 12:15 40.789089 -111.980779 229 4236ft 0kts
04-Jan-18 12:16 40.789089 -111.980779 229 4236ft 0kts
04-Jan-18 12:17 40.789089 -111.980779 229 4236ft 0kts
04-Jan-18 12:18 40.789089 -111.980779 229 4236ft 0kts
04-Jan-18 12:19 40.789089 -111.980779 229 4236ft 0kts
04-Jan-18 12:20 40.789213 -111.980591 229 4236ft 1kts
04-Jan-18 12:21 40.789754 -111.980452 150 4236ft 2kts
04-Jan-18 12:22 40.789983 -111.981022 82 4236ft 1kts
04-Jan-18 12:23 40.789979 -111.981059 84 4236ft 0kts
04-Jan-18 12:24 40.789985 -111.980922 88 4236ft 1kts
04-Jan-18 12:25 40.789699 -111.980236 129 4236ft 3kts
04-Jan-18 12:26 40.789679 -111.978688 84 4236ft 8kts
04-Jan-18 12:27 40.787734 -111.976828 175 4236ft 13kts
04-Jan-18 12:28 40.783240 -111.976303 174 4236ft 18kts
04-Jan-18 12:29 40.777982 -111.975194 176 4236ft 20kts
04-Jan-18 12:30 40.774608 -111.973824 58 4236ft 7kts
04-Jan-18 12:31 40.800907 -111.976252 354 4789ft 182kts
04-Jan-18 12:32 40.861964 -111.978755 351 7178ft 256kts
04-Jan-18 12:33 40.935851 -111.992730 351 10332ft 286kts
04-Jan-18 12:34 41.017671 -112.005458 352 12161ft 345kts
04-Jan-18 12:35 41.109862 -111.975848 44 13766ft 393kts
04-Jan-18 12:36 41.182568 -111.874911 44 15837ft 407kts
04-Jan-18 12:37 41.275380 -111.789480 26 17798ft 416kts
04-Jan-18 12:38 41.377717 -111.716924 21 19606ft 425kts
04-Jan-18 12:39 41.490599 -111.669759 14 21257ft 432kts
04-Jan-18 12:40 41.606629 -111.623492 14 22736ft 442kts
04-Jan-18 12:41 41.725290 -111.575909 14 24064ft 451kts
04-Jan-18 12:42 41.846781 -111.536165 6 25281ft 457kts
04-Jan-18 12:43 41.972224 -111.507864 6 26381ft 465kts
04-Jan-18 12:44 42.098767 -111.479182 6 26423ft 466kts
04-Jan-18 12:45 42.218128 -111.452063 5 26233ft 467kts
04-Jan-18 12:46 42.340157 -111.476383 330 25619ft 440kts
04-Jan-18 12:47 42.438837 -111.569243 321 24615ft 429kts
04-Jan-18 12:48 42.534441 -111.663377 321 23394ft 425kts
04-Jan-18 12:49 42.627754 -111.755556 321 22312ft 417kts
04-Jan-18 12:50 42.719989 -111.847017 321 21286ft 409kts
04-Jan-18 12:51 42.809096 -111.935707 322 19057ft 394kts
04-Jan-18 12:52 42.895709 -112.022193 322 16717ft 381kts
04-Jan-18 12:53 42.979228 -112.105902 322 14424ft 368kts
04-Jan-18 12:54 43.060095 -112.187233 322 12051ft 360kts
04-Jan-18 12:55 43.136387 -112.264224 322 10215ft 321kts
04-Jan-18 12:56 43.201258 -112.328335 336 8912ft 275kts
04-Jan-18 12:57 43.271917 -112.301708 25 8066ft 274kts
04-Jan-18 12:58 43.337117 -112.256326 25 7339ft 257kts
04-Jan-18 12:59 43.394578 -112.200697 35 6539ft 235kts
04-Jan-18 13:00 43.439359 -112.152722 35 6516ft 157kts
04-Jan-18 13:01 43.471798 -112.117899 35 5698ft 145kts
04-Jan-18 13:02 43.503374 -112.084110 35 4780ft 141kts
04-Jan-18 13:03 43.517350 -112.068759 103 4747ft 13kts
04-Jan-18 13:04 43.515840 -112.068212 153 4747ft 3kts
04-Jan-18 13:05 43.515639 -112.068070 152 4747ft 0kts

Navigation Log

Ident Type
Flight plan parsing failed, navigation log unavailable